sensor_id;sensor_type;location;lat;lon;timestamp;P1;durP1;ratioP1;P2;durP2;ratioP2
22030;SDS011;11179;52.106;21.024;2022-07-06T00:02:14;17.70;;;10.20;;
22030;SDS011;11179;52.106;21.024;2022-07-06T00:04:39;11.60;;;8.87;;
22030;SDS011;11179;52.106;21.024;2022-07-06T00:07:05;17.03;;;9.73;;
22030;SDS011;11179;52.106;21.024;2022-07-06T00:09:30;14.67;;;9.50;;
22030;SDS011;11179;52.106;21.024;2022-07-06T00:11:57;12.00;;;8.73;;
22030;SDS011;11179;52.106;21.024;2022-07-06T00:14:22;11.50;;;8.30;;
22030;SDS011;11179;52.106;21.024;2022-07-06T00:16:48;15.47;;;10.03;;
22030;SDS011;11179;52.106;21.024;2022-07-06T00:19:13;12.07;;;8.47;;
22030;SDS011;11179;52.106;21.024;2022-07-06T00:21:38;10.50;;;7.63;;
22030;SDS011;11179;52.106;21.024;2022-07-06T00:24:04;11.63;;;7.67;;
22030;SDS011;11179;52.106;21.024;2022-07-06T00:26:30;16.07;;;8.40;;
22030;SDS011;11179;52.106;21.024;2022-07-06T00:28:55;11.53;;;7.70;;
22030;SDS011;11179;52.106;21.024;2022-07-06T00:31:20;10.83;;;7.20;;
22030;SDS011;11179;52.106;21.024;2022-07-06T00:33:46;10.10;;;7.30;;
22030;SDS011;11179;52.106;21.024;2022-07-06T00:36:11;11.30;;;7.33;;
22030;SDS011;11179;52.106;21.024;2022-07-06T00:38:37;10.17;;;7.10;;
22030;SDS011;11179;52.106;21.024;2022-07-06T00:41:02;12.13;;;7.97;;
22030;SDS011;11179;52.106;21.024;2022-07-06T00:43:28;13.50;;;8.70;;
22030;SDS011;11179;52.106;21.024;2022-07-06T00:45:53;10.97;;;7.60;;
22030;SDS011;11179;52.106;21.024;2022-07-06T00:48:19;14.57;;;7.50;;
22030;SDS011;11179;52.106;21.024;2022-07-06T00:50:44;19.93;;;7.63;;
22030;SDS011;11179;52.106;21.024;2022-07-06T00:53:10;10.63;;;8.17;;
22030;SDS011;11179;52.106;21.024;2022-07-06T00:55:36;14.73;;;8.43;;
22030;SDS011;11179;52.106;21.024;2022-07-06T00:58:06;13.80;;;8.17;;
22030;SDS011;11179;52.106;21.024;2022-07-06T01:00:32;11.23;;;8.30;;
22030;SDS011;11179;52.106;21.024;2022-07-06T01:02:58;13.60;;;9.10;;
22030;SDS011;11179;52.106;21.024;2022-07-06T01:05:24;13.73;;;8.60;;
22030;SDS011;11179;52.106;21.024;2022-07-06T01:07:50;10.97;;;7.90;;
22030;SDS011;11179;52.106;21.024;2022-07-06T01:10:17;14.50;;;8.97;;
22030;SDS011;11179;52.106;21.024;2022-07-06T01:12:44;11.30;;;7.50;;
22030;SDS011;11179;52.106;21.024;2022-07-06T01:15:12;13.87;;;7.70;;
22030;SDS011;11179;52.106;21.024;2022-07-06T01:17:42;13.13;;;8.40;;
22030;SDS011;11179;52.106;21.024;2022-07-06T01:22:34;12.50;;;7.27;;
22030;SDS011;11179;52.106;21.024;2022-07-06T01:24:59;10.70;;;7.20;;
22030;SDS011;11179;52.106;21.024;2022-07-06T01:27:25;10.80;;;6.70;;
22030;SDS011;11179;52.106;21.024;2022-07-06T01:29:50;10.37;;;6.63;;
22030;SDS011;11179;52.106;21.024;2022-07-06T01:32:16;10.73;;;6.03;;
22030;SDS011;11179;52.106;21.024;2022-07-06T01:34:41;10.37;;;7.50;;
22030;SDS011;11179;52.106;21.024;2022-07-06T01:37:06;10.73;;;6.90;;
22030;SDS011;11179;52.106;21.024;2022-07-06T01:39:32;11.00;;;7.00;;
22030;SDS011;11179;52.106;21.024;2022-07-06T01:41:57;11.27;;;6.63;;
22030;SDS011;11179;52.106;21.024;2022-07-06T01:44:22;10.40;;;7.10;;
22030;SDS011;11179;52.106;21.024;2022-07-06T01:46:48;9.70;;;6.93;;
22030;SDS011;11179;52.106;21.024;2022-07-06T01:49:13;10.27;;;6.63;;
22030;SDS011;11179;52.106;21.024;2022-07-06T01:51:39;9.97;;;6.43;;
22030;SDS011;11179;52.106;21.024;2022-07-06T01:54:04;12.50;;;7.23;;
22030;SDS011;11179;52.106;21.024;2022-07-06T01:56:30;11.80;;;6.77;;
22030;SDS011;11179;52.106;21.024;2022-07-06T01:58:55;10.83;;;6.77;;
22030;SDS011;11179;52.106;21.024;2022-07-06T02:01:22;11.40;;;7.07;;
22030;SDS011;11179;52.106;21.024;2022-07-06T02:03:48;10.17;;;7.03;;
22030;SDS011;11179;52.106;21.024;2022-07-06T02:06:13;10.10;;;6.30;;
22030;SDS011;11179;52.106;21.024;2022-07-06T02:08:41;9.57;;;6.07;;
22030;SDS011;11179;52.106;21.024;2022-07-06T02:11:07;10.87;;;5.67;;
22030;SDS011;11179;52.106;21.024;2022-07-06T02:13:34;10.17;;;6.50;;
22030;SDS011;11179;52.106;21.024;2022-07-06T02:16:00;8.33;;;5.90;;
22030;SDS011;11179;52.106;21.024;2022-07-06T02:18:26;9.80;;;6.40;;
22030;SDS011;11179;52.106;21.024;2022-07-06T02:20:51;9.37;;;6.10;;
22030;SDS011;11179;52.106;21.024;2022-07-06T02:23:17;8.90;;;6.07;;
22030;SDS011;11179;52.106;21.024;2022-07-06T02:25:42;12.63;;;6.60;;
22030;SDS011;11179;52.106;21.024;2022-07-06T02:28:08;9.30;;;5.73;;
22030;SDS011;11179;52.106;21.024;2022-07-06T02:30:33;9.70;;;6.40;;
22030;SDS011;11179;52.106;21.024;2022-07-06T02:32:58;9.20;;;6.53;;
22030;SDS011;11179;52.106;21.024;2022-07-06T02:35:24;9.00;;;6.40;;
22030;SDS011;11179;52.106;21.024;2022-07-06T02:37:49;8.33;;;5.40;;
22030;SDS011;11179;52.106;21.024;2022-07-06T02:40:14;12.33;;;5.80;;
22030;SDS011;11179;52.106;21.024;2022-07-06T02:42:40;8.23;;;5.70;;
22030;SDS011;11179;52.106;21.024;2022-07-06T02:45:06;11.50;;;5.93;;
22030;SDS011;11179;52.106;21.024;2022-07-06T02:47:32;9.80;;;5.83;;
22030;SDS011;11179;52.106;21.024;2022-07-06T02:49:57;10.57;;;6.20;;
22030;SDS011;11179;52.106;21.024;2022-07-06T02:52:22;10.17;;;5.57;;
22030;SDS011;11179;52.106;21.024;2022-07-06T02:54:48;8.53;;;5.40;;
22030;SDS011;11179;52.106;21.024;2022-07-06T02:57:14;9.70;;;5.90;;
22030;SDS011;11179;52.106;21.024;2022-07-06T02:59:39;10.37;;;6.00;;
22030;SDS011;11179;52.106;21.024;2022-07-06T03:02:05;8.53;;;5.50;;
22030;SDS011;11179;52.106;21.024;2022-07-06T03:04:31;9.70;;;6.77;;
22030;SDS011;11179;52.106;21.024;2022-07-06T03:06:56;11.53;;;5.90;;
22030;SDS011;11179;52.106;21.024;2022-07-06T03:09:22;14.47;;;5.70;;
22030;SDS011;11179;52.106;21.024;2022-07-06T03:11:47;8.63;;;6.07;;
22030;SDS011;11179;52.106;21.024;2022-07-06T03:14:12;7.83;;;5.30;;
22030;SDS011;11179;52.106;21.024;2022-07-06T03:16:38;12.03;;;5.70;;
22030;SDS011;11179;52.106;21.024;2022-07-06T03:19:03;7.20;;;5.07;;
22030;SDS011;11179;52.106;21.024;2022-07-06T03:21:29;9.20;;;6.17;;
22030;SDS011;11179;52.106;21.024;2022-07-06T03:23:54;9.17;;;5.43;;
22030;SDS011;11179;52.106;21.024;2022-07-06T03:26:19;9.93;;;5.57;;
22030;SDS011;11179;52.106;21.024;2022-07-06T03:28:45;14.10;;;5.50;;
22030;SDS011;11179;52.106;21.024;2022-07-06T03:31:10;7.83;;;5.10;;
22030;SDS011;11179;52.106;21.024;2022-07-06T03:33:35;8.47;;;4.93;;
22030;SDS011;11179;52.106;21.024;2022-07-06T03:36:01;8.73;;;4.90;;
22030;SDS011;11179;52.106;21.024;2022-07-06T03:38:26;7.00;;;4.50;;
22030;SDS011;11179;52.106;21.024;2022-07-06T03:40:51;9.83;;;5.20;;
22030;SDS011;11179;52.106;21.024;2022-07-06T03:43:17;9.70;;;5.13;;
22030;SDS011;11179;52.106;21.024;2022-07-06T03:45:42;6.50;;;4.50;;
22030;SDS011;11179;52.106;21.024;2022-07-06T03:48:08;7.63;;;4.50;;
22030;SDS011;11179;52.106;21.024;2022-07-06T03:50:33;6.80;;;4.30;;
22030;SDS011;11179;52.106;21.024;2022-07-06T03:52:58;7.73;;;4.17;;
22030;SDS011;11179;52.106;21.024;2022-07-06T03:55:24;7.13;;;4.77;;
22030;SDS011;11179;52.106;21.024;2022-07-06T03:57:49;8.23;;;5.20;;
22030;SDS011;11179;52.106;21.024;2022-07-06T04:00:15;7.10;;;5.00;;
22030;SDS011;11179;52.106;21.024;2022-07-06T04:02:40;8.80;;;4.43;;
22030;SDS011;11179;52.106;21.024;2022-07-06T04:05:07;7.20;;;4.13;;
22030;SDS011;11179;52.106;21.024;2022-07-06T04:07:32;8.50;;;4.07;;
22030;SDS011;11179;52.106;21.024;2022-07-06T04:09:58;7.60;;;4.83;;
22030;SDS011;11179;52.106;21.024;2022-07-06T04:12:23;7.73;;;4.37;;
22030;SDS011;11179;52.106;21.024;2022-07-06T04:14:49;6.50;;;4.50;;
22030;SDS011;11179;52.106;21.024;2022-07-06T04:17:14;5.83;;;4.20;;
22030;SDS011;11179;52.106;21.024;2022-07-06T04:19:58;6.90;;;4.07;;
22030;SDS011;11179;52.106;21.024;2022-07-06T04:22:23;7.03;;;4.13;;
22030;SDS011;11179;52.106;21.024;2022-07-06T04:24:49;9.10;;;5.00;;
22030;SDS011;11179;52.106;21.024;2022-07-06T04:27:14;5.87;;;4.20;;
22030;SDS011;11179;52.106;21.024;2022-07-06T04:29:39;11.43;;;4.50;;
22030;SDS011;11179;52.106;21.024;2022-07-06T04:32:05;7.17;;;3.70;;
22030;SDS011;11179;52.106;21.024;2022-07-06T04:34:30;9.40;;;3.67;;
22030;SDS011;11179;52.106;21.024;2022-07-06T04:36:56;6.30;;;3.40;;
22030;SDS011;11179;52.106;21.024;2022-07-06T04:39:21;10.37;;;3.80;;
22030;SDS011;11179;52.106;21.024;2022-07-06T04:41:46;7.20;;;4.00;;
22030;SDS011;11179;52.106;21.024;2022-07-06T04:44:12;6.60;;;3.60;;
22030;SDS011;11179;52.106;21.024;2022-07-06T04:46:37;10.27;;;3.80;;
22030;SDS011;11179;52.106;21.024;2022-07-06T04:49:02;8.37;;;4.20;;
22030;SDS011;11179;52.106;21.024;2022-07-06T04:51:28;7.97;;;4.10;;
22030;SDS011;11179;52.106;21.024;2022-07-06T04:53:53;15.37;;;3.87;;
22030;SDS011;11179;52.106;21.024;2022-07-06T04:56:18;6.77;;;3.80;;
22030;SDS011;11179;52.106;21.024;2022-07-06T04:58:43;7.13;;;4.60;;
22030;SDS011;11179;52.106;21.024;2022-07-06T05:01:09;6.77;;;3.83;;
22030;SDS011;11179;52.106;21.024;2022-07-06T05:03:34;7.40;;;3.10;;
22030;SDS011;11179;52.106;21.024;2022-07-06T05:06:05;6.00;;;3.10;;
22030;SDS011;11179;52.106;21.024;2022-07-06T05:08:31;6.57;;;3.20;;
22030;SDS011;11179;52.106;21.024;2022-07-06T05:10:56;9.57;;;4.00;;
22030;SDS011;11179;52.106;21.024;2022-07-06T05:13:21;5.53;;;3.10;;
22030;SDS011;11179;52.106;21.024;2022-07-06T05:15:47;8.93;;;3.60;;
22030;SDS011;11179;52.106;21.024;2022-07-06T05:18:12;5.77;;;3.20;;
22030;SDS011;11179;52.106;21.024;2022-07-06T05:20:37;8.37;;;3.70;;
22030;SDS011;11179;52.106;21.024;2022-07-06T05:23:03;5.00;;;3.03;;
22030;SDS011;11179;52.106;21.024;2022-07-06T05:25:28;6.10;;;3.23;;
22030;SDS011;11179;52.106;21.024;2022-07-06T05:27:54;5.37;;;3.00;;
22030;SDS011;11179;52.106;21.024;2022-07-06T05:30:19;9.63;;;2.93;;
22030;SDS011;11179;52.106;21.024;2022-07-06T05:32:44;9.77;;;2.97;;
22030;SDS011;11179;52.106;21.024;2022-07-06T05:35:10;6.40;;;2.43;;
22030;SDS011;11179;52.106;21.024;2022-07-06T05:37:35;4.70;;;2.83;;
22030;SDS011;11179;52.106;21.024;2022-07-06T05:40:00;5.67;;;2.50;;
22030;SDS011;11179;52.106;21.024;2022-07-06T05:42:26;6.63;;;3.20;;
22030;SDS011;11179;52.106;21.024;2022-07-06T05:44:54;6.37;;;3.30;;
22030;SDS011;11179;52.106;21.024;2022-07-06T05:47:20;8.57;;;3.30;;
22030;SDS011;11179;52.106;21.024;2022-07-06T05:50:05;4.67;;;3.00;;
22030;SDS011;11179;52.106;21.024;2022-07-06T05:52:54;9.33;;;4.87;;
22030;SDS011;11179;52.106;21.024;2022-07-06T05:55:28;5.63;;;3.20;;
22030;SDS011;11179;52.106;21.024;2022-07-06T05:57:53;7.00;;;3.30;;
22030;SDS011;11179;52.106;21.024;2022-07-06T06:00:20;6.53;;;3.40;;
22030;SDS011;11179;52.106;21.024;2022-07-06T06:02:49;7.03;;;3.80;;
22030;SDS011;11179;52.106;21.024;2022-07-06T06:05:15;6.97;;;3.30;;
22030;SDS011;11179;52.106;21.024;2022-07-06T06:07:42;6.57;;;3.40;;
22030;SDS011;11179;52.106;21.024;2022-07-06T06:10:08;14.37;;;3.70;;
22030;SDS011;11179;52.106;21.024;2022-07-06T06:12:36;6.10;;;3.50;;
22030;SDS011;11179;52.106;21.024;2022-07-06T06:15:02;7.93;;;3.37;;
22030;SDS011;11179;52.106;21.024;2022-07-06T06:17:28;6.40;;;3.70;;
22030;SDS011;11179;52.106;21.024;2022-07-06T06:19:53;10.10;;;3.80;;
22030;SDS011;11179;52.106;21.024;2022-07-06T06:22:19;7.03;;;3.57;;
22030;SDS011;11179;52.106;21.024;2022-07-06T06:24:44;9.23;;;4.00;;
22030;SDS011;11179;52.106;21.024;2022-07-06T06:27:10;5.90;;;3.50;;
22030;SDS011;11179;52.106;21.024;2022-07-06T06:29:36;7.13;;;3.40;;
22030;SDS011;11179;52.106;21.024;2022-07-06T06:32:01;7.33;;;3.90;;
22030;SDS011;11179;52.106;21.024;2022-07-06T06:34:26;6.80;;;3.83;;
22030;SDS011;11179;52.106;21.024;2022-07-06T06:36:52;6.30;;;3.50;;
22030;SDS011;11179;52.106;21.024;2022-07-06T06:39:17;5.77;;;3.67;;
22030;SDS011;11179;52.106;21.024;2022-07-06T06:41:43;9.00;;;4.13;;
22030;SDS011;11179;52.106;21.024;2022-07-06T06:44:08;10.43;;;4.23;;
22030;SDS011;11179;52.106;21.024;2022-07-06T06:46:33;10.97;;;4.50;;
22030;SDS011;11179;52.106;21.024;2022-07-06T06:48:59;6.67;;;3.83;;
22030;SDS011;11179;52.106;21.024;2022-07-06T06:51:24;7.77;;;4.37;;
22030;SDS011;11179;52.106;21.024;2022-07-06T06:53:49;10.03;;;4.57;;
22030;SDS011;11179;52.106;21.024;2022-07-06T06:56:15;9.30;;;4.63;;
22030;SDS011;11179;52.106;21.024;2022-07-06T06:58:40;12.53;;;5.10;;
22030;SDS011;11179;52.106;21.024;2022-07-06T07:01:06;11.00;;;5.10;;
22030;SDS011;11179;52.106;21.024;2022-07-06T07:03:31;10.87;;;5.37;;
22030;SDS011;11179;52.106;21.024;2022-07-06T07:05:57;8.60;;;4.70;;
22030;SDS011;11179;52.106;21.024;2022-07-06T07:08:22;10.67;;;5.30;;
22030;SDS011;11179;52.106;21.024;2022-07-06T07:10:48;7.30;;;4.90;;
22030;SDS011;11179;52.106;21.024;2022-07-06T07:13:13;9.07;;;5.87;;
22030;SDS011;11179;52.106;21.024;2022-07-06T07:15:38;11.20;;;6.53;;
22030;SDS011;11179;52.106;21.024;2022-07-06T07:18:04;11.17;;;6.67;;
22030;SDS011;11179;52.106;21.024;2022-07-06T07:20:29;13.37;;;7.13;;
22030;SDS011;11179;52.106;21.024;2022-07-06T07:22:56;10.07;;;6.60;;
22030;SDS011;11179;52.106;21.024;2022-07-06T07:25:22;16.60;;;8.20;;
22030;SDS011;11179;52.106;21.024;2022-07-06T07:27:47;14.10;;;7.50;;
22030;SDS011;11179;52.106;21.024;2022-07-06T07:30:13;16.80;;;6.33;;
22030;SDS011;11179;52.106;21.024;2022-07-06T07:32:38;9.60;;;5.97;;
22030;SDS011;11179;52.106;21.024;2022-07-06T07:35:05;10.63;;;6.30;;
22030;SDS011;11179;52.106;21.024;2022-07-06T07:37:31;7.80;;;4.93;;
22030;SDS011;11179;52.106;21.024;2022-07-06T07:39:56;11.07;;;5.50;;
22030;SDS011;11179;52.106;21.024;2022-07-06T07:42:22;10.20;;;5.20;;
22030;SDS011;11179;52.106;21.024;2022-07-06T07:44:47;13.37;;;6.23;;
22030;SDS011;11179;52.106;21.024;2022-07-06T07:47:13;12.10;;;5.20;;
22030;SDS011;11179;52.106;21.024;2022-07-06T07:49:38;9.90;;;6.03;;
22030;SDS011;11179;52.106;21.024;2022-07-06T07:52:04;9.77;;;5.97;;
22030;SDS011;11179;52.106;21.024;2022-07-06T07:54:29;14.07;;;5.30;;
22030;SDS011;11179;52.106;21.024;2022-07-06T07:56:55;11.60;;;5.57;;
22030;SDS011;11179;52.106;21.024;2022-07-06T07:59:20;11.47;;;5.00;;
22030;SDS011;11179;52.106;21.024;2022-07-06T08:01:45;10.90;;;5.97;;
22030;SDS011;11179;52.106;21.024;2022-07-06T08:04:11;12.93;;;6.13;;
22030;SDS011;11179;52.106;21.024;2022-07-06T08:06:36;10.80;;;5.40;;
22030;SDS011;11179;52.106;21.024;2022-07-06T08:09:01;14.50;;;4.70;;
22030;SDS011;11179;52.106;21.024;2022-07-06T08:11:29;9.70;;;5.13;;
22030;SDS011;11179;52.106;21.024;2022-07-06T08:13:54;12.00;;;4.90;;
22030;SDS011;11179;52.106;21.024;2022-07-06T08:16:20;11.33;;;5.00;;
22030;SDS011;11179;52.106;21.024;2022-07-06T08:18:45;13.10;;;4.10;;
22030;SDS011;11179;52.106;21.024;2022-07-06T08:21:11;9.40;;;4.80;;
22030;SDS011;11179;52.106;21.024;2022-07-06T08:23:36;11.37;;;5.17;;
22030;SDS011;11179;52.106;21.024;2022-07-06T08:26:02;15.23;;;4.70;;
22030;SDS011;11179;52.106;21.024;2022-07-06T08:28:28;8.67;;;4.10;;
22030;SDS011;11179;52.106;21.024;2022-07-06T08:30:54;10.53;;;4.60;;
22030;SDS011;11179;52.106;21.024;2022-07-06T08:33:20;9.20;;;3.73;;
22030;SDS011;11179;52.106;21.024;2022-07-06T08:35:45;7.27;;;3.77;;
22030;SDS011;11179;52.106;21.024;2022-07-06T08:38:11;6.30;;;3.03;;
22030;SDS011;11179;52.106;21.024;2022-07-06T08:40:36;5.80;;;2.90;;
22030;SDS011;11179;52.106;21.024;2022-07-06T08:43:04;9.13;;;2.90;;
22030;SDS011;11179;52.106;21.024;2022-07-06T08:45:30;7.30;;;2.80;;
22030;SDS011;11179;52.106;21.024;2022-07-06T08:47:59;6.00;;;2.20;;
22030;SDS011;11179;52.106;21.024;2022-07-06T08:50:30;4.90;;;2.30;;
22030;SDS011;11179;52.106;21.024;2022-07-06T08:52:55;4.73;;;2.60;;
22030;SDS011;11179;52.106;21.024;2022-07-06T08:55:21;6.10;;;2.60;;
22030;SDS011;11179;52.106;21.024;2022-07-06T08:57:46;5.53;;;2.20;;
22030;SDS011;11179;52.106;21.024;2022-07-06T09:00:12;6.57;;;2.40;;
22030;SDS011;11179;52.106;21.024;2022-07-06T09:02:39;5.17;;;2.63;;
22030;SDS011;11179;52.106;21.024;2022-07-06T09:05:05;3.90;;;1.90;;
22030;SDS011;11179;52.106;21.024;2022-07-06T09:07:33;4.70;;;1.97;;
22030;SDS011;11179;52.106;21.024;2022-07-06T09:09:59;6.03;;;1.93;;
22030;SDS011;11179;52.106;21.024;2022-07-06T09:12:28;8.77;;;2.37;;
22030;SDS011;11179;52.106;21.024;2022-07-06T09:14:57;6.93;;;1.90;;
22030;SDS011;11179;52.106;21.024;2022-07-06T09:17:28;7.90;;;2.30;;
22030;SDS011;11179;52.106;21.024;2022-07-06T09:19:55;8.70;;;1.93;;
22030;SDS011;11179;52.106;21.024;2022-07-06T09:22:25;7.10;;;2.10;;
22030;SDS011;11179;52.106;21.024;2022-07-06T09:25:09;11.67;;;2.20;;
22030;SDS011;11179;52.106;21.024;2022-07-06T09:27:37;4.90;;;1.60;;
22030;SDS011;11179;52.106;21.024;2022-07-06T09:30:04;7.97;;;2.00;;
22030;SDS011;11179;52.106;21.024;2022-07-06T09:32:31;7.47;;;2.10;;
22030;SDS011;11179;52.106;21.024;2022-07-06T09:35:03;5.93;;;2.00;;
22030;SDS011;11179;52.106;21.024;2022-07-06T09:37:28;4.30;;;1.33;;
22030;SDS011;11179;52.106;21.024;2022-07-06T09:39:54;10.10;;;2.00;;
22030;SDS011;11179;52.106;21.024;2022-07-06T09:42:23;3.90;;;1.60;;
22030;SDS011;11179;52.106;21.024;2022-07-06T09:44:50;6.60;;;1.83;;
22030;SDS011;11179;52.106;21.024;2022-07-06T09:47:15;4.13;;;1.60;;
22030;SDS011;11179;52.106;21.024;2022-07-06T09:49:41;4.50;;;1.50;;
22030;SDS011;11179;52.106;21.024;2022-07-06T09:52:07;4.27;;;1.43;;
22030;SDS011;11179;52.106;21.024;2022-07-06T09:54:34;5.40;;;1.60;;
22030;SDS011;11179;52.106;21.024;2022-07-06T09:57:00;3.00;;;1.17;;
22030;SDS011;11179;52.106;21.024;2022-07-06T09:59:27;4.77;;;1.10;;
22030;SDS011;11179;52.106;21.024;2022-07-06T10:01:54;4.70;;;1.50;;
22030;SDS011;11179;52.106;21.024;2022-07-06T10:04:21;3.93;;;1.20;;
22030;SDS011;11179;52.106;21.024;2022-07-06T10:06:48;5.57;;;1.00;;
22030;SDS011;11179;52.106;21.024;2022-07-06T10:09:14;7.07;;;1.23;;
22030;SDS011;11179;52.106;21.024;2022-07-06T10:11:40;3.87;;;1.43;;
22030;SDS011;11179;52.106;21.024;2022-07-06T10:14:08;9.70;;;1.50;;
22030;SDS011;11179;52.106;21.024;2022-07-06T10:16:36;4.17;;;1.60;;
22030;SDS011;11179;52.106;21.024;2022-07-06T10:19:06;4.07;;;1.17;;
22030;SDS011;11179;52.106;21.024;2022-07-06T10:21:36;6.53;;;1.50;;
22030;SDS011;11179;52.106;21.024;2022-07-06T10:24:03;3.93;;;1.20;;
22030;SDS011;11179;52.106;21.024;2022-07-06T10:26:30;5.50;;;1.67;;
22030;SDS011;11179;52.106;21.024;2022-07-06T10:28:58;8.33;;;1.30;;
22030;SDS011;11179;52.106;21.024;2022-07-06T10:31:25;7.47;;;1.50;;
22030;SDS011;11179;52.106;21.024;2022-07-06T10:33:53;3.80;;;1.57;;
22030;SDS011;11179;52.106;21.024;2022-07-06T10:36:20;4.47;;;1.23;;
22030;SDS011;11179;52.106;21.024;2022-07-06T10:38:47;4.70;;;1.27;;
22030;SDS011;11179;52.106;21.024;2022-07-06T10:41:14;4.30;;;1.10;;
22030;SDS011;11179;52.106;21.024;2022-07-06T10:43:43;3.23;;;0.97;;
22030;SDS011;11179;52.106;21.024;2022-07-06T10:46:15;6.17;;;1.20;;
22030;SDS011;11179;52.106;21.024;2022-07-06T10:48:45;8.83;;;1.40;;
22030;SDS011;11179;52.106;21.024;2022-07-06T10:51:12;4.70;;;1.20;;
22030;SDS011;11179;52.106;21.024;2022-07-06T10:53:54;6.53;;;0.93;;
22030;SDS011;11179;52.106;21.024;2022-07-06T10:56:22;6.33;;;1.50;;
22030;SDS011;11179;52.106;21.024;2022-07-06T10:59:01;4.20;;;1.60;;
22030;SDS011;11179;52.106;21.024;2022-07-06T11:01:28;3.47;;;1.10;;
22030;SDS011;11179;52.106;21.024;2022-07-06T11:06:23;5.57;;;1.17;;
22030;SDS011;11179;52.106;21.024;2022-07-06T11:08:50;10.43;;;1.53;;
22030;SDS011;11179;52.106;21.024;2022-07-06T11:16:30;6.47;;;1.67;;
22030;SDS011;11179;52.106;21.024;2022-07-06T11:19:17;4.70;;;1.10;;
22030;SDS011;11179;52.106;21.024;2022-07-06T11:21:48;4.47;;;1.20;;
22030;SDS011;11179;52.106;21.024;2022-07-06T11:24:20;3.77;;;0.97;;
22030;SDS011;11179;52.106;21.024;2022-07-06T11:26:48;3.80;;;1.23;;
22030;SDS011;11179;52.106;21.024;2022-07-06T11:29:16;3.63;;;1.20;;
22030;SDS011;11179;52.106;21.024;2022-07-06T11:31:43;3.70;;;1.23;;
22030;SDS011;11179;52.106;21.024;2022-07-06T11:34:11;4.10;;;1.03;;
22030;SDS011;11179;52.106;21.024;2022-07-06T11:36:39;3.63;;;1.10;;
22030;SDS011;11179;52.106;21.024;2022-07-06T11:39:05;4.00;;;1.07;;
22030;SDS011;11179;52.106;21.024;2022-07-06T11:41:31;3.80;;;1.13;;
22030;SDS011;11179;52.106;21.024;2022-07-06T11:43:57;7.83;;;1.07;;
22030;SDS011;11179;52.106;21.024;2022-07-06T11:46:23;4.63;;;1.30;;
22030;SDS011;11179;52.106;21.024;2022-07-06T11:48:52;2.93;;;1.03;;
22030;SDS011;11179;52.106;21.024;2022-07-06T11:51:19;4.13;;;1.67;;
22030;SDS011;11179;52.106;21.024;2022-07-06T11:53:46;4.07;;;1.10;;
22030;SDS011;11179;52.106;21.024;2022-07-06T11:56:15;15.70;;;1.10;;
22030;SDS011;11179;52.106;21.024;2022-07-06T11:58:43;3.43;;;1.10;;
22030;SDS011;11179;52.106;21.024;2022-07-06T12:01:11;3.77;;;1.20;;
22030;SDS011;11179;52.106;21.024;2022-07-06T12:03:38;8.63;;;1.80;;
22030;SDS011;11179;52.106;21.024;2022-07-06T12:06:12;6.60;;;1.07;;
22030;SDS011;11179;52.106;21.024;2022-07-06T12:08:44;3.37;;;0.90;;
22030;SDS011;11179;52.106;21.024;2022-07-06T12:11:16;5.70;;;1.30;;
22030;SDS011;11179;52.106;21.024;2022-07-06T12:13:52;2.97;;;0.90;;
22030;SDS011;11179;52.106;21.024;2022-07-06T12:16:19;4.17;;;1.07;;
22030;SDS011;11179;52.106;21.024;2022-07-06T12:18:48;5.60;;;1.23;;
22030;SDS011;11179;52.106;21.024;2022-07-06T12:21:15;7.63;;;1.10;;
22030;SDS011;11179;52.106;21.024;2022-07-06T12:23:46;3.87;;;1.60;;
22030;SDS011;11179;52.106;21.024;2022-07-06T12:26:14;3.90;;;0.93;;
22030;SDS011;11179;52.106;21.024;2022-07-06T12:28:41;11.20;;;1.20;;
22030;SDS011;11179;52.106;21.024;2022-07-06T12:31:07;7.60;;;1.03;;
22030;SDS011;11179;52.106;21.024;2022-07-06T12:33:33;4.60;;;1.00;;
22030;SDS011;11179;52.106;21.024;2022-07-06T12:36:08;4.03;;;1.13;;
22030;SDS011;11179;52.106;21.024;2022-07-06T12:38:43;4.33;;;1.20;;
22030;SDS011;11179;52.106;21.024;2022-07-06T12:41:10;5.53;;;1.40;;
22030;SDS011;11179;52.106;21.024;2022-07-06T12:43:36;3.67;;;0.90;;
22030;SDS011;11179;52.106;21.024;2022-07-06T12:52:28;5.03;;;1.23;;
22030;SDS011;11179;52.106;21.024;2022-07-06T12:54:41;5.83;;;1.10;;
22030;SDS011;11179;52.106;21.024;2022-07-06T12:57:15;4.37;;;1.13;;
22030;SDS011;11179;52.106;21.024;2022-07-06T12:59:41;5.57;;;1.20;;
22030;SDS011;11179;52.106;21.024;2022-07-06T13:02:10;6.30;;;1.57;;
22030;SDS011;11179;52.106;21.024;2022-07-06T13:04:43;3.70;;;1.00;;
22030;SDS011;11179;52.106;21.024;2022-07-06T13:07:16;7.77;;;1.33;;
22030;SDS011;11179;52.106;21.024;2022-07-06T13:09:43;4.70;;;1.30;;
22030;SDS011;11179;52.106;21.024;2022-07-06T13:12:32;4.23;;;1.03;;
22030;SDS011;11179;52.106;21.024;2022-07-06T13:14:58;6.00;;;1.20;;
22030;SDS011;11179;52.106;21.024;2022-07-06T13:17:29;3.63;;;1.10;;
22030;SDS011;11179;52.106;21.024;2022-07-06T13:20:15;17.13;;;1.30;;
22030;SDS011;11179;52.106;21.024;2022-07-06T13:22:42;5.20;;;1.43;;
22030;SDS011;11179;52.106;21.024;2022-07-06T13:25:07;3.33;;;1.07;;
22030;SDS011;11179;52.106;21.024;2022-07-06T13:27:33;3.00;;;0.93;;
22030;SDS011;11179;52.106;21.024;2022-07-06T13:29:58;3.80;;;1.10;;
22030;SDS011;11179;52.106;21.024;2022-07-06T13:32:24;5.67;;;1.20;;
22030;SDS011;11179;52.106;21.024;2022-07-06T13:34:49;3.80;;;1.00;;
22030;SDS011;11179;52.106;21.024;2022-07-06T13:37:14;4.27;;;1.10;;
22030;SDS011;11179;52.106;21.024;2022-07-06T13:39:40;4.00;;;1.47;;
22030;SDS011;11179;52.106;21.024;2022-07-06T13:42:05;4.03;;;1.30;;
22030;SDS011;11179;52.106;21.024;2022-07-06T13:44:32;8.60;;;1.20;;
22030;SDS011;11179;52.106;21.024;2022-07-06T13:46:58;6.47;;;1.40;;
22030;SDS011;11179;52.106;21.024;2022-07-06T13:49:24;6.90;;;1.20;;
22030;SDS011;11179;52.106;21.024;2022-07-06T13:51:49;8.70;;;1.47;;
22030;SDS011;11179;52.106;21.024;2022-07-06T13:54:15;3.57;;;1.20;;
22030;SDS011;11179;52.106;21.024;2022-07-06T13:56:40;4.03;;;1.23;;
22030;SDS011;11179;52.106;21.024;2022-07-06T13:59:06;5.50;;;1.30;;
22030;SDS011;11179;52.106;21.024;2022-07-06T14:01:31;5.90;;;1.40;;
22030;SDS011;11179;52.106;21.024;2022-07-06T14:03:57;5.00;;;1.40;;
22030;SDS011;11179;52.106;21.024;2022-07-06T14:06:22;5.47;;;1.40;;
22030;SDS011;11179;52.106;21.024;2022-07-06T14:08:48;9.17;;;2.07;;
22030;SDS011;11179;52.106;21.024;2022-07-06T14:11:14;3.53;;;1.10;;
22030;SDS011;11179;52.106;21.024;2022-07-06T14:13:39;9.60;;;1.50;;
22030;SDS011;11179;52.106;21.024;2022-07-06T14:16:05;4.10;;;1.50;;
22030;SDS011;11179;52.106;21.024;2022-07-06T14:18:31;5.87;;;1.30;;
22030;SDS011;11179;52.106;21.024;2022-07-06T14:20:57;5.70;;;1.20;;
22030;SDS011;11179;52.106;21.024;2022-07-06T14:23:23;4.90;;;1.00;;
22030;SDS011;11179;52.106;21.024;2022-07-06T14:25:49;4.70;;;1.20;;
22030;SDS011;11179;52.106;21.024;2022-07-06T14:28:15;7.10;;;1.60;;
22030;SDS011;11179;52.106;21.024;2022-07-06T14:30:44;4.50;;;1.27;;
22030;SDS011;11179;52.106;21.024;2022-07-06T14:33:11;5.30;;;1.47;;
22030;SDS011;11179;52.106;21.024;2022-07-06T14:35:41;4.90;;;1.50;;
22030;SDS011;11179;52.106;21.024;2022-07-06T14:38:08;3.60;;;1.10;;
22030;SDS011;11179;52.106;21.024;2022-07-06T14:40:34;4.57;;;1.43;;
22030;SDS011;11179;52.106;21.024;2022-07-06T14:43:00;5.80;;;1.50;;
22030;SDS011;11179;52.106;21.024;2022-07-06T14:45:26;3.43;;;1.30;;